sensor_id;sensor_type;location;lat;lon;timestamp;P1;durP1;ratioP1;P2;durP2;ratioP2
45344;SDS011;31078;48.304;11.896;2023-01-19T00:01:40;32.58;;;14.45;;
45344;SDS011;31078;48.304;11.896;2023-01-19T00:04:06;25.17;;;13.85;;
45344;SDS011;31078;48.304;11.896;2023-01-19T00:06:33;26.33;;;14.00;;
45344;SDS011;31078;48.304;11.896;2023-01-19T00:09:01;27.92;;;14.52;;
45344;SDS011;31078;48.304;11.896;2023-01-19T00:11:28;29.25;;;15.18;;
45344;SDS011;31078;48.304;11.896;2023-01-19T00:13:55;32.28;;;15.23;;
45344;SDS011;31078;48.304;11.896;2023-01-19T00:16:22;28.40;;;14.15;;
45344;SDS011;31078;48.304;11.896;2023-01-19T00:18:50;32.22;;;15.75;;
45344;SDS011;31078;48.304;11.896;2023-01-19T00:21:17;29.60;;;15.57;;
45344;SDS011;31078;48.304;11.896;2023-01-19T00:23:45;32.45;;;16.25;;
45344;SDS011;31078;48.304;11.896;2023-01-19T00:26:13;31.75;;;16.50;;
45344;SDS011;31078;48.304;11.896;2023-01-19T00:28:41;33.67;;;16.67;;
45344;SDS011;31078;48.304;11.896;2023-01-19T00:31:07;33.30;;;17.30;;
45344;SDS011;31078;48.304;11.896;2023-01-19T00:33:34;30.73;;;17.23;;
45344;SDS011;31078;48.304;11.896;2023-01-19T00:36:01;37.08;;;18.67;;
45344;SDS011;31078;48.304;11.896;2023-01-19T00:38:27;36.60;;;18.55;;
45344;SDS011;31078;48.304;11.896;2023-01-19T00:40:54;38.67;;;19.23;;
45344;SDS011;31078;48.304;11.896;2023-01-19T00:43:22;43.85;;;20.92;;
45344;SDS011;31078;48.304;11.896;2023-01-19T00:45:48;40.63;;;19.88;;
45344;SDS011;31078;48.304;11.896;2023-01-19T00:48:15;39.08;;;18.75;;
45344;SDS011;31078;48.304;11.896;2023-01-19T00:50:41;35.10;;;18.45;;
45344;SDS011;31078;48.304;11.896;2023-01-19T00:53:08;37.72;;;18.83;;
45344;SDS011;31078;48.304;11.896;2023-01-19T00:55:34;40.47;;;18.45;;
45344;SDS011;31078;48.304;11.896;2023-01-19T00:58:00;35.47;;;17.38;;
45344;SDS011;31078;48.304;11.896;2023-01-19T01:00:29;39.05;;;18.45;;
45344;SDS011;31078;48.304;11.896;2023-01-19T01:02:55;33.95;;;17.17;;
45344;SDS011;31078;48.304;11.896;2023-01-19T01:05:22;37.63;;;17.13;;
45344;SDS011;31078;48.304;11.896;2023-01-19T01:07:49;32.65;;;17.13;;
45344;SDS011;31078;48.304;11.896;2023-01-19T01:10:16;34.83;;;16.63;;
45344;SDS011;31078;48.304;11.896;2023-01-19T01:12:44;34.22;;;16.30;;
45344;SDS011;31078;48.304;11.896;2023-01-19T01:15:11;31.55;;;16.10;;
45344;SDS011;31078;48.304;11.896;2023-01-19T01:17:41;33.10;;;17.02;;
45344;SDS011;31078;48.304;11.896;2023-01-19T01:20:12;30.80;;;16.00;;
45344;SDS011;31078;48.304;11.896;2023-01-19T01:22:41;31.88;;;16.40;;
45344;SDS011;31078;48.304;11.896;2023-01-19T01:25:09;28.45;;;15.45;;
45344;SDS011;31078;48.304;11.896;2023-01-19T01:27:36;28.83;;;14.02;;
45344;SDS011;31078;48.304;11.896;2023-01-19T01:30:03;24.58;;;13.82;;
45344;SDS011;31078;48.304;11.896;2023-01-19T01:32:30;27.55;;;14.48;;
45344;SDS011;31078;48.304;11.896;2023-01-19T01:34:58;28.33;;;14.48;;
45344;SDS011;31078;48.304;11.896;2023-01-19T01:37:24;25.58;;;13.50;;
45344;SDS011;31078;48.304;11.896;2023-01-19T01:39:50;29.23;;;13.40;;
45344;SDS011;31078;48.304;11.896;2023-01-19T01:42:18;24.25;;;12.23;;
45344;SDS011;31078;48.304;11.896;2023-01-19T01:44:50;26.38;;;12.57;;
45344;SDS011;31078;48.304;11.896;2023-01-19T01:47:20;27.20;;;13.63;;
45344;SDS011;31078;48.304;11.896;2023-01-19T01:49:51;29.05;;;13.73;;
45344;SDS011;31078;48.304;11.896;2023-01-19T01:52:24;21.77;;;12.43;;
45344;SDS011;31078;48.304;11.896;2023-01-19T01:54:53;18.10;;;8.98;;
45344;SDS011;31078;48.304;11.896;2023-01-19T01:57:20;16.75;;;7.93;;
45344;SDS011;31078;48.304;11.896;2023-01-19T01:59:47;11.77;;;6.65;;
45344;SDS011;31078;48.304;11.896;2023-01-19T02:02:16;14.30;;;7.25;;
45344;SDS011;31078;48.304;11.896;2023-01-19T02:05:04;13.55;;;7.53;;
45344;SDS011;31078;48.304;11.896;2023-01-19T02:07:37;13.93;;;8.10;;
45344;SDS011;31078;48.304;11.896;2023-01-19T02:10:27;14.13;;;8.02;;
45344;SDS011;31078;48.304;11.896;2023-01-19T02:13:11;16.73;;;8.73;;
45344;SDS011;31078;48.304;11.896;2023-01-19T02:15:48;19.60;;;8.45;;
45344;SDS011;31078;48.304;11.896;2023-01-19T02:18:16;15.48;;;8.18;;
45344;SDS011;31078;48.304;11.896;2023-01-19T02:20:46;20.10;;;8.48;;
45344;SDS011;31078;48.304;11.896;2023-01-19T02:25:55;17.70;;;8.23;;
45344;SDS011;31078;48.304;11.896;2023-01-19T02:28:23;18.13;;;8.70;;
45344;SDS011;31078;48.304;11.896;2023-01-19T02:30:51;17.50;;;8.25;;
45344;SDS011;31078;48.304;11.896;2023-01-19T02:33:18;17.13;;;9.18;;
45344;SDS011;31078;48.304;11.896;2023-01-19T02:35:44;17.10;;;8.27;;
45344;SDS011;31078;48.304;11.896;2023-01-19T02:38:12;19.17;;;7.68;;
45344;SDS011;31078;48.304;11.896;2023-01-19T02:40:44;17.08;;;9.52;;
45344;SDS011;31078;48.304;11.896;2023-01-19T02:43:11;12.75;;;7.50;;
45344;SDS011;31078;48.304;11.896;2023-01-19T02:45:40;17.45;;;8.77;;
45344;SDS011;31078;48.304;11.896;2023-01-19T02:48:07;19.33;;;8.90;;
45344;SDS011;31078;48.304;11.896;2023-01-19T02:50:39;21.70;;;10.10;;
45344;SDS011;31078;48.304;11.896;2023-01-19T02:53:21;19.95;;;10.40;;
45344;SDS011;31078;48.304;11.896;2023-01-19T02:56:04;23.30;;;11.93;;
45344;SDS011;31078;48.304;11.896;2023-01-19T02:58:38;19.58;;;10.93;;
45344;SDS011;31078;48.304;11.896;2023-01-19T03:01:14;20.42;;;10.48;;
45344;SDS011;31078;48.304;11.896;2023-01-19T03:03:52;20.13;;;10.27;;
45344;SDS011;31078;48.304;11.896;2023-01-19T03:06:24;21.83;;;11.60;;
45344;SDS011;31078;48.304;11.896;2023-01-19T03:09:02;23.13;;;11.00;;
45344;SDS011;31078;48.304;11.896;2023-01-19T03:11:37;25.13;;;11.63;;
45344;SDS011;31078;48.304;11.896;2023-01-19T03:16:38;22.42;;;12.38;;
45344;SDS011;31078;48.304;11.896;2023-01-19T03:19:08;29.80;;;13.60;;
45344;SDS011;31078;48.304;11.896;2023-01-19T03:21:41;26.50;;;13.57;;
45344;SDS011;31078;48.304;11.896;2023-01-19T03:24:12;23.27;;;12.70;;
45344;SDS011;31078;48.304;11.896;2023-01-19T03:26:43;31.67;;;14.70;;
45344;SDS011;31078;48.304;11.896;2023-01-19T03:29:14;31.40;;;13.52;;
45344;SDS011;31078;48.304;11.896;2023-01-19T03:31:44;29.02;;;14.18;;
45344;SDS011;31078;48.304;11.896;2023-01-19T03:34:14;27.33;;;13.23;;
45344;SDS011;31078;48.304;11.896;2023-01-19T03:36:42;31.77;;;15.60;;
45344;SDS011;31078;48.304;11.896;2023-01-19T03:39:11;28.08;;;14.43;;
45344;SDS011;31078;48.304;11.896;2023-01-19T03:41:45;29.45;;;14.27;;
45344;SDS011;31078;48.304;11.896;2023-01-19T03:44:15;29.42;;;14.70;;
45344;SDS011;31078;48.304;11.896;2023-01-19T03:46:42;30.05;;;15.18;;
45344;SDS011;31078;48.304;11.896;2023-01-19T03:49:10;31.88;;;16.13;;
45344;SDS011;31078;48.304;11.896;2023-01-19T03:51:37;33.63;;;16.48;;
45344;SDS011;31078;48.304;11.896;2023-01-19T03:54:04;29.60;;;16.05;;
45344;SDS011;31078;48.304;11.896;2023-01-19T03:56:32;33.53;;;15.85;;
45344;SDS011;31078;48.304;11.896;2023-01-19T03:59:00;28.60;;;14.85;;
45344;SDS011;31078;48.304;11.896;2023-01-19T04:01:26;27.08;;;14.30;;
45344;SDS011;31078;48.304;11.896;2023-01-19T04:03:53;28.75;;;15.30;;
45344;SDS011;31078;48.304;11.896;2023-01-19T04:06:20;25.02;;;13.80;;
45344;SDS011;31078;48.304;11.896;2023-01-19T04:08:47;25.67;;;14.35;;
45344;SDS011;31078;48.304;11.896;2023-01-19T04:11:14;25.35;;;14.40;;
45344;SDS011;31078;48.304;11.896;2023-01-19T04:13:41;29.65;;;14.95;;
45344;SDS011;31078;48.304;11.896;2023-01-19T04:16:10;26.17;;;14.63;;
45344;SDS011;31078;48.304;11.896;2023-01-19T04:18:37;26.55;;;14.27;;
45344;SDS011;31078;48.304;11.896;2023-01-19T04:21:04;26.80;;;14.20;;
45344;SDS011;31078;48.304;11.896;2023-01-19T04:23:32;29.35;;;14.98;;
45344;SDS011;31078;48.304;11.896;2023-01-19T04:25:59;26.25;;;14.73;;
45344;SDS011;31078;48.304;11.896;2023-01-19T04:28:27;27.65;;;15.55;;
45344;SDS011;31078;48.304;11.896;2023-01-19T04:30:54;25.40;;;15.02;;
45344;SDS011;31078;48.304;11.896;2023-01-19T04:33:22;28.63;;;15.43;;
45344;SDS011;31078;48.304;11.896;2023-01-19T04:35:50;31.63;;;15.73;;
45344;SDS011;31078;48.304;11.896;2023-01-19T04:38:17;34.90;;;17.08;;
45344;SDS011;31078;48.304;11.896;2023-01-19T04:40:44;28.33;;;16.08;;
45344;SDS011;31078;48.304;11.896;2023-01-19T04:43:11;31.83;;;16.02;;
45344;SDS011;31078;48.304;11.896;2023-01-19T04:45:38;30.15;;;15.43;;
45344;SDS011;31078;48.304;11.896;2023-01-19T04:48:05;27.92;;;17.10;;
45344;SDS011;31078;48.304;11.896;2023-01-19T04:50:33;33.63;;;17.98;;
45344;SDS011;31078;48.304;11.896;2023-01-19T04:52:59;31.13;;;17.30;;
45344;SDS011;31078;48.304;11.896;2023-01-19T04:55:26;35.35;;;17.85;;
45344;SDS011;31078;48.304;11.896;2023-01-19T04:57:52;38.13;;;18.92;;
45344;SDS011;31078;48.304;11.896;2023-01-19T05:00:19;32.55;;;17.80;;
45344;SDS011;31078;48.304;11.896;2023-01-19T05:02:46;34.67;;;18.52;;
45344;SDS011;31078;48.304;11.896;2023-01-19T05:05:13;30.55;;;17.25;;
45344;SDS011;31078;48.304;11.896;2023-01-19T05:07:41;33.67;;;18.27;;
45344;SDS011;31078;48.304;11.896;2023-01-19T05:10:08;34.42;;;18.25;;
45344;SDS011;31078;48.304;11.896;2023-01-19T05:12:35;36.35;;;18.02;;
45344;SDS011;31078;48.304;11.896;2023-01-19T05:15:02;32.72;;;18.35;;
45344;SDS011;31078;48.304;11.896;2023-01-19T05:17:31;34.47;;;17.58;;
45344;SDS011;31078;48.304;11.896;2023-01-19T05:19:58;32.22;;;16.92;;
45344;SDS011;31078;48.304;11.896;2023-01-19T05:22:24;35.83;;;17.85;;
45344;SDS011;31078;48.304;11.896;2023-01-19T05:24:52;30.42;;;17.52;;
45344;SDS011;31078;48.304;11.896;2023-01-19T05:27:19;34.03;;;17.70;;
45344;SDS011;31078;48.304;11.896;2023-01-19T05:29:45;32.17;;;17.05;;
45344;SDS011;31078;48.304;11.896;2023-01-19T05:32:12;30.80;;;16.10;;
45344;SDS011;31078;48.304;11.896;2023-01-19T05:34:38;27.33;;;16.60;;
45344;SDS011;31078;48.304;11.896;2023-01-19T05:37:05;31.70;;;17.13;;
45344;SDS011;31078;48.304;11.896;2023-01-19T05:39:31;27.05;;;15.52;;
45344;SDS011;31078;48.304;11.896;2023-01-19T05:41:59;34.05;;;16.65;;
45344;SDS011;31078;48.304;11.896;2023-01-19T05:44:26;32.03;;;15.98;;
45344;SDS011;31078;48.304;11.896;2023-01-19T05:46:52;28.42;;;15.32;;
45344;SDS011;31078;48.304;11.896;2023-01-19T05:49:19;30.05;;;15.98;;
45344;SDS011;31078;48.304;11.896;2023-01-19T05:51:45;32.35;;;15.90;;
45344;SDS011;31078;48.304;11.896;2023-01-19T05:54:12;28.52;;;15.95;;
45344;SDS011;31078;48.304;11.896;2023-01-19T05:56:39;30.50;;;15.43;;
45344;SDS011;31078;48.304;11.896;2023-01-19T05:59:08;30.55;;;16.42;;
45344;SDS011;31078;48.304;11.896;2023-01-19T06:01:35;28.13;;;15.35;;
45344;SDS011;31078;48.304;11.896;2023-01-19T06:04:02;26.88;;;14.73;;
45344;SDS011;31078;48.304;11.896;2023-01-19T06:06:29;26.98;;;14.00;;
45344;SDS011;31078;48.304;11.896;2023-01-19T06:08:56;32.95;;;15.15;;
45344;SDS011;31078;48.304;11.896;2023-01-19T06:11:22;27.08;;;15.15;;
45344;SDS011;31078;48.304;11.896;2023-01-19T06:13:50;28.77;;;15.55;;
45344;SDS011;31078;48.304;11.896;2023-01-19T06:16:18;32.90;;;17.08;;
45344;SDS011;31078;48.304;11.896;2023-01-19T06:18:44;30.98;;;16.45;;
45344;SDS011;31078;48.304;11.896;2023-01-19T06:21:11;29.45;;;16.75;;
45344;SDS011;31078;48.304;11.896;2023-01-19T06:23:38;33.05;;;17.05;;
45344;SDS011;31078;48.304;11.896;2023-01-19T06:26:04;30.02;;;16.38;;
45344;SDS011;31078;48.304;11.896;2023-01-19T06:28:31;27.80;;;14.88;;
45344;SDS011;31078;48.304;11.896;2023-01-19T06:30:57;27.10;;;15.43;;
45344;SDS011;31078;48.304;11.896;2023-01-19T06:33:26;28.02;;;16.77;;
45344;SDS011;31078;48.304;11.896;2023-01-19T06:35:53;29.02;;;16.77;;
45344;SDS011;31078;48.304;11.896;2023-01-19T06:38:20;31.65;;;16.58;;
45344;SDS011;31078;48.304;11.896;2023-01-19T06:40:50;31.35;;;17.23;;
45344;SDS011;31078;48.304;11.896;2023-01-19T06:43:19;29.77;;;17.50;;
45344;SDS011;31078;48.304;11.896;2023-01-19T06:45:46;28.00;;;16.63;;
45344;SDS011;31078;48.304;11.896;2023-01-19T06:48:12;32.10;;;17.30;;
45344;SDS011;31078;48.304;11.896;2023-01-19T06:50:40;33.47;;;17.00;;
45344;SDS011;31078;48.304;11.896;2023-01-19T06:53:09;31.98;;;17.90;;
45344;SDS011;31078;48.304;11.896;2023-01-19T06:55:36;31.20;;;17.40;;
45344;SDS011;31078;48.304;11.896;2023-01-19T06:58:03;35.22;;;17.95;;
45344;SDS011;31078;48.304;11.896;2023-01-19T07:00:30;30.70;;;17.85;;
45344;SDS011;31078;48.304;11.896;2023-01-19T07:02:57;30.23;;;17.23;;
45344;SDS011;31078;48.304;11.896;2023-01-19T07:05:23;31.65;;;17.00;;
45344;SDS011;31078;48.304;11.896;2023-01-19T07:07:51;34.67;;;17.88;;
45344;SDS011;31078;48.304;11.896;2023-01-19T07:10:18;35.85;;;19.33;;
45344;SDS011;31078;48.304;11.896;2023-01-19T07:12:45;33.35;;;17.42;;
45344;SDS011;31078;48.304;11.896;2023-01-19T07:15:12;35.80;;;19.60;;
45344;SDS011;31078;48.304;11.896;2023-01-19T07:17:40;34.15;;;16.98;;
45344;SDS011;31078;48.304;11.896;2023-01-19T07:20:07;32.53;;;17.90;;
45344;SDS011;31078;48.304;11.896;2023-01-19T07:22:37;30.55;;;16.48;;
45344;SDS011;31078;48.304;11.896;2023-01-19T07:25:05;31.58;;;16.88;;
45344;SDS011;31078;48.304;11.896;2023-01-19T07:27:32;33.67;;;18.08;;
45344;SDS011;31078;48.304;11.896;2023-01-19T07:29:59;29.83;;;16.08;;
45344;SDS011;31078;48.304;11.896;2023-01-19T07:32:26;31.92;;;16.80;;
45344;SDS011;31078;48.304;11.896;2023-01-19T07:34:53;30.98;;;15.88;;
45344;SDS011;31078;48.304;11.896;2023-01-19T07:37:19;32.58;;;16.83;;
45344;SDS011;31078;48.304;11.896;2023-01-19T07:39:46;32.75;;;17.35;;
45344;SDS011;31078;48.304;11.896;2023-01-19T07:42:13;31.60;;;16.63;;
45344;SDS011;31078;48.304;11.896;2023-01-19T07:44:40;32.47;;;17.10;;
45344;SDS011;31078;48.304;11.896;2023-01-19T07:47:06;30.40;;;16.67;;
45344;SDS011;31078;48.304;11.896;2023-01-19T07:49:36;28.77;;;15.90;;
45344;SDS011;31078;48.304;11.896;2023-01-19T07:52:03;29.27;;;16.20;;
45344;SDS011;31078;48.304;11.896;2023-01-19T07:54:29;28.45;;;15.98;;
45344;SDS011;31078;48.304;11.896;2023-01-19T07:56:56;29.33;;;16.75;;
45344;SDS011;31078;48.304;11.896;2023-01-19T07:59:26;27.50;;;14.65;;
45344;SDS011;31078;48.304;11.896;2023-01-19T08:01:54;32.22;;;15.70;;
45344;SDS011;31078;48.304;11.896;2023-01-19T08:04:22;28.35;;;15.50;;
45344;SDS011;31078;48.304;11.896;2023-01-19T08:06:48;29.20;;;15.85;;
45344;SDS011;31078;48.304;11.896;2023-01-19T08:09:14;28.85;;;16.23;;
45344;SDS011;31078;48.304;11.896;2023-01-19T08:11:42;27.98;;;15.40;;
45344;SDS011;31078;48.304;11.896;2023-01-19T08:14:08;26.73;;;15.60;;
45344;SDS011;31078;48.304;11.896;2023-01-19T08:16:36;29.20;;;16.35;;
45344;SDS011;31078;48.304;11.896;2023-01-19T08:19:03;28.73;;;16.35;;
45344;SDS011;31078;48.304;11.896;2023-01-19T08:21:29;33.03;;;16.77;;
45344;SDS011;31078;48.304;11.896;2023-01-19T08:23:57;32.30;;;16.20;;
45344;SDS011;31078;48.304;11.896;2023-01-19T08:26:25;29.45;;;16.63;;
45344;SDS011;31078;48.304;11.896;2023-01-19T08:28:53;30.05;;;16.20;;
45344;SDS011;31078;48.304;11.896;2023-01-19T08:31:22;34.88;;;16.88;;
45344;SDS011;31078;48.304;11.896;2023-01-19T08:33:50;30.95;;;15.55;;
45344;SDS011;31078;48.304;11.896;2023-01-19T08:36:16;35.72;;;17.65;;
45344;SDS011;31078;48.304;11.896;2023-01-19T08:38:43;30.58;;;16.27;;
45344;SDS011;31078;48.304;11.896;2023-01-19T08:41:10;97.97;;;35.28;;
45344;SDS011;31078;48.304;11.896;2023-01-19T08:43:36;34.65;;;18.20;;
45344;SDS011;31078;48.304;11.896;2023-01-19T08:46:03;33.47;;;17.85;;
45344;SDS011;31078;48.304;11.896;2023-01-19T08:48:30;30.83;;;15.60;;
45344;SDS011;31078;48.304;11.896;2023-01-19T08:50:58;29.65;;;15.88;;
45344;SDS011;31078;48.304;11.896;2023-01-19T08:53:25;30.45;;;16.23;;
45344;SDS011;31078;48.304;11.896;2023-01-19T08:55:53;32.05;;;15.57;;
45344;SDS011;31078;48.304;11.896;2023-01-19T08:58:21;29.23;;;15.65;;
45344;SDS011;31078;48.304;11.896;2023-01-19T09:00:48;28.38;;;15.73;;
45344;SDS011;31078;48.304;11.896;2023-01-19T09:03:16;30.05;;;16.55;;
45344;SDS011;31078;48.304;11.896;2023-01-19T09:05:44;29.95;;;14.40;;
45344;SDS011;31078;48.304;11.896;2023-01-19T09:08:13;24.00;;;14.88;;
45344;SDS011;31078;48.304;11.896;2023-01-19T09:10:43;26.60;;;15.18;;
45344;SDS011;31078;48.304;11.896;2023-01-19T09:13:11;24.95;;;15.20;;
45344;SDS011;31078;48.304;11.896;2023-01-19T09:15:38;27.02;;;14.93;;
45344;SDS011;31078;48.304;11.896;2023-01-19T09:18:06;24.33;;;14.50;;
45344;SDS011;31078;48.304;11.896;2023-01-19T09:20:37;32.03;;;16.38;;
45344;SDS011;31078;48.304;11.896;2023-01-19T09:23:04;27.77;;;15.38;;
45344;SDS011;31078;48.304;11.896;2023-01-19T09:25:32;22.75;;;13.05;;
45344;SDS011;31078;48.304;11.896;2023-01-19T09:27:59;23.30;;;13.85;;
45344;SDS011;31078;48.304;11.896;2023-01-19T09:30:26;29.15;;;14.45;;
45344;SDS011;31078;48.304;11.896;2023-01-19T09:32:52;25.42;;;13.85;;
45344;SDS011;31078;48.304;11.896;2023-01-19T09:35:19;25.85;;;13.75;;
45344;SDS011;31078;48.304;11.896;2023-01-19T09:37:45;21.70;;;12.05;;
45344;SDS011;31078;48.304;11.896;2023-01-19T09:40:12;21.55;;;12.48;;
45344;SDS011;31078;48.304;11.896;2023-01-19T09:42:42;22.45;;;11.68;;
45344;SDS011;31078;48.304;11.896;2023-01-19T09:45:15;21.15;;;12.35;;
45344;SDS011;31078;48.304;11.896;2023-01-19T09:47:54;24.08;;;12.63;;
45344;SDS011;31078;48.304;11.896;2023-01-19T09:50:23;22.80;;;12.43;;
45344;SDS011;31078;48.304;11.896;2023-01-19T09:52:53;22.30;;;12.93;;
45344;SDS011;31078;48.304;11.896;2023-01-19T09:55:25;22.13;;;12.20;;
45344;SDS011;31078;48.304;11.896;2023-01-19T09:57:54;20.67;;;11.60;;
45344;SDS011;31078;48.304;11.896;2023-01-19T10:00:21;21.35;;;12.30;;
45344;SDS011;31078;48.304;11.896;2023-01-19T10:02:49;21.50;;;12.05;;
45344;SDS011;31078;48.304;11.896;2023-01-19T10:05:23;24.73;;;11.88;;
45344;SDS011;31078;48.304;11.896;2023-01-19T10:08:00;23.17;;;12.30;;
45344;SDS011;31078;48.304;11.896;2023-01-19T10:10:38;19.05;;;12.02;;
45344;SDS011;31078;48.304;11.896;2023-01-19T10:13:13;23.65;;;12.75;;
45344;SDS011;31078;48.304;11.896;2023-01-19T10:15:59;21.83;;;12.25;;
45344;SDS011;31078;48.304;11.896;2023-01-19T10:18:36;22.17;;;12.73;;
45344;SDS011;31078;48.304;11.896;2023-01-19T10:21:12;22.25;;;11.38;;
45344;SDS011;31078;48.304;11.896;2023-01-19T10:23:43;22.08;;;12.43;;
45344;SDS011;31078;48.304;11.896;2023-01-19T10:26:13;19.85;;;12.02;;
45344;SDS011;31078;48.304;11.896;2023-01-19T10:28:43;19.17;;;11.73;;
45344;SDS011;31078;48.304;11.896;2023-01-19T10:31:12;20.02;;;11.70;;
45344;SDS011;31078;48.304;11.896;2023-01-19T10:33:39;19.80;;;12.15;;
45344;SDS011;31078;48.304;11.896;2023-01-19T10:36:09;20.13;;;11.90;;
45344;SDS011;31078;48.304;11.896;2023-01-19T10:38:41;18.60;;;11.02;;
45344;SDS011;31078;48.304;11.896;2023-01-19T10:41:10;21.98;;;12.98;;
45344;SDS011;31078;48.304;11.896;2023-01-19T10:43:41;20.10;;;11.57;;
45344;SDS011;31078;48.304;11.896;2023-01-19T10:46:19;25.77;;;12.45;;
45344;SDS011;31078;48.304;11.896;2023-01-19T10:48:48;22.75;;;13.55;;
45344;SDS011;31078;48.304;11.896;2023-01-19T10:51:16;20.55;;;12.48;;
45344;SDS011;31078;48.304;11.896;2023-01-19T10:53:51;23.48;;;12.00;;
45344;SDS011;31078;48.304;11.896;2023-01-19T10:56:21;19.15;;;10.80;;
45344;SDS011;31078;48.304;11.896;2023-01-19T10:58:50;18.63;;;11.52;;
45344;SDS011;31078;48.304;11.896;2023-01-19T11:01:18;18.58;;;11.18;;
45344;SDS011;31078;48.304;11.896;2023-01-19T11:03:46;22.48;;;11.20;;
45344;SDS011;31078;48.304;11.896;2023-01-19T11:06:26;19.60;;;11.65;;
45344;SDS011;31078;48.304;11.896;2023-01-19T11:09:08;18.58;;;10.70;;
45344;SDS011;31078;48.304;11.896;2023-01-19T11:11:43;17.33;;;9.95;;
45344;SDS011;31078;48.304;11.896;2023-01-19T11:14:13;19.25;;;11.00;;
45344;SDS011;31078;48.304;11.896;2023-01-19T11:16:45;17.90;;;9.65;;
45344;SDS011;31078;48.304;11.896;2023-01-19T11:19:16;15.85;;;10.05;;
45344;SDS011;31078;48.304;11.896;2023-01-19T11:21:45;17.10;;;9.70;;
45344;SDS011;31078;48.304;11.896;2023-01-19T11:24:12;15.70;;;9.52;;
45344;SDS011;31078;48.304;11.896;2023-01-19T11:26:40;18.77;;;10.35;;
45344;SDS011;31078;48.304;11.896;2023-01-19T11:29:14;19.15;;;11.57;;
45344;SDS011;31078;48.304;11.896;2023-01-19T11:31:42;14.95;;;8.68;;
45344;SDS011;31078;48.304;11.896;2023-01-19T11:34:21;17.10;;;9.70;;
45344;SDS011;31078;48.304;11.896;2023-01-19T11:36:54;19.70;;;9.95;;
45344;SDS011;31078;48.304;11.896;2023-01-19T11:39:22;15.18;;;9.63;;
45344;SDS011;31078;48.304;11.896;2023-01-19T11:41:52;17.38;;;10.68;;
45344;SDS011;31078;48.304;11.896;2023-01-19T11:44:23;17.45;;;10.32;;
45344;SDS011;31078;48.304;11.896;2023-01-19T11:46:55;15.93;;;8.63;;
45344;SDS011;31078;48.304;11.896;2023-01-19T11:49:24;16.13;;;9.45;;
45344;SDS011;31078;48.304;11.896;2023-01-19T11:51:57;16.33;;;9.60;;
45344;SDS011;31078;48.304;11.896;2023-01-19T11:54:28;15.60;;;8.85;;
45344;SDS011;31078;48.304;11.896;2023-01-19T11:56:59;14.40;;;8.52;;
45344;SDS011;31078;48.304;11.896;2023-01-19T11:59:28;16.30;;;8.90;;
45344;SDS011;31078;48.304;11.896;2023-01-19T12:01:55;17.52;;;9.32;;
45344;SDS011;31078;48.304;11.896;2023-01-19T12:04:24;15.18;;;9.82;;
45344;SDS011;31078;48.304;11.896;2023-01-19T12:06:55;16.17;;;9.13;;
45344;SDS011;31078;48.304;11.896;2023-01-19T12:09:24;13.80;;;8.90;;
45344;SDS011;31078;48.304;11.896;2023-01-19T12:11:54;17.88;;;9.50;;
45344;SDS011;31078;48.304;11.896;2023-01-19T12:14:23;21.02;;;10.32;;
45344;SDS011;31078;48.304;11.896;2023-01-19T12:16:56;16.58;;;8.77;;
45344;SDS011;31078;48.304;11.896;2023-01-19T12:19:28;19.25;;;8.82;;
45344;SDS011;31078;48.304;11.896;2023-01-19T12:22:08;13.90;;;8.35;;
45344;SDS011;31078;48.304;11.896;2023-01-19T12:24:39;12.40;;;6.67;;
45344;SDS011;31078;48.304;11.896;2023-01-19T12:27:12;15.30;;;8.70;;
45344;SDS011;31078;48.304;11.896;2023-01-19T12:29:45;18.58;;;8.25;;
45344;SDS011;31078;48.304;11.896;2023-01-19T12:32:28;13.50;;;8.10;;
45344;SDS011;31078;48.304;11.896;2023-01-19T12:34:58;11.98;;;7.28;;
45344;SDS011;31078;48.304;11.896;2023-01-19T12:37:30;12.00;;;7.47;;
45344;SDS011;31078;48.304;11.896;2023-01-19T12:42:55;12.80;;;7.00;;
45344;SDS011;31078;48.304;11.896;2023-01-19T12:45:27;13.10;;;6.72;;
45344;SDS011;31078;48.304;11.896;2023-01-19T12:47:58;13.17;;;7.07;;
45344;SDS011;31078;48.304;11.896;2023-01-19T12:50:26;14.48;;;7.10;;
45344;SDS011;31078;48.304;11.896;2023-01-19T12:53:01;16.55;;;6.30;;
45344;SDS011;31078;48.304;11.896;2023-01-19T12:55:32;12.05;;;7.25;;
45344;SDS011;31078;48.304;11.896;2023-01-19T12:58:02;13.18;;;6.10;;
45344;SDS011;31078;48.304;11.896;2023-01-19T13:00:33;11.65;;;6.25;;
45344;SDS011;31078;48.304;11.896;2023-01-19T13:06:05;11.68;;;5.93;;
45344;SDS011;31078;48.304;11.896;2023-01-19T13:11:25;8.30;;;5.40;;
45344;SDS011;31078;48.304;11.896;2023-01-19T13:16:58;10.80;;;6.20;;
45344;SDS011;31078;48.304;11.896;2023-01-19T13:19:33;11.52;;;6.32;;
45344;SDS011;31078;48.304;11.896;2023-01-19T13:25:20;75.50;;;24.38;;
45344;SDS011;31078;48.304;11.896;2023-01-19T13:27:52;12.57;;;6.53;;
45344;SDS011;31078;48.304;11.896;2023-01-19T13:30:19;11.45;;;5.78;;
45344;SDS011;31078;48.304;11.896;2023-01-19T13:32:51;9.27;;;5.32;;
45344;SDS011;31078;48.304;11.896;2023-01-19T13:35:19;13.90;;;6.50;;
45344;SDS011;31078;48.304;11.896;2023-01-19T13:37:46;11.15;;;5.30;;
45344;SDS011;31078;48.304;11.896;2023-01-19T13:40:16;11.32;;;6.22;;
45344;SDS011;31078;48.304;11.896;2023-01-19T13:42:45;8.73;;;5.30;;
45344;SDS011;31078;48.304;11.896;2023-01-19T13:45:16;11.65;;;5.63;;
45344;SDS011;31078;48.304;11.896;2023-01-19T13:47:52;9.68;;;5.30;;
45344;SDS011;31078;48.304;11.896;2023-01-19T13:50:22;11.35;;;5.60;;
45344;SDS011;31078;48.304;11.896;2023-01-19T13:52:50;11.05;;;5.50;;
45344;SDS011;31078;48.304;11.896;2023-01-19T13:55:21;12.15;;;6.00;;
45344;SDS011;31078;48.304;11.896;2023-01-19T13:57:49;8.45;;;4.90;;
45344;SDS011;31078;48.304;11.896;2023-01-19T14:00:17;7.85;;;5.13;;
45344;SDS011;31078;48.304;11.896;2023-01-19T14:02:50;12.35;;;5.50;;
45344;SDS011;31078;48.304;11.896;2023-01-19T14:05:23;9.10;;;5.47;;
45344;SDS011;31078;48.304;11.896;2023-01-19T14:08:02;12.43;;;5.70;;
45344;SDS011;31078;48.304;11.896;2023-01-19T14:10:33;10.75;;;5.15;;
45344;SDS011;31078;48.304;11.896;2023-01-19T14:13:00;11.63;;;5.47;;
45344;SDS011;31078;48.304;11.896;2023-01-19T14:15:29;13.90;;;5.20;;
45344;SDS011;31078;48.304;11.896;2023-01-19T14:18:17;9.57;;;5.03;;
45344;SDS011;31078;48.304;11.896;2023-01-19T14:20:53;8.88;;;4.97;;
45344;SDS011;31078;48.304;11.896;2023-01-19T14:23:41;13.75;;;5.55;;
45344;SDS011;31078;48.304;11.896;2023-01-19T14:29:17;9.55;;;5.50;;
45344;SDS011;31078;48.304;11.896;2023-01-19T14:31:48;8.90;;;4.40;;
45344;SDS011;31078;48.304;11.896;2023-01-19T14:34:29;10.57;;;5.32;;
45344;SDS011;31078;48.304;11.896;2023-01-19T14:37:12;10.27;;;5.32;;
45344;SDS011;31078;48.304;11.896;2023-01-19T14:39:45;11.57;;;5.60;;
45344;SDS011;31078;48.304;11.896;2023-01-19T14:42:15;9.65;;;5.95;;
45344;SDS011;31078;48.304;11.896;2023-01-19T14:44:46;9.00;;;5.47;;
45344;SDS011;31078;48.304;11.896;2023-01-19T14:47:20;10.75;;;6.28;;
45344;SDS011;31078;48.304;11.896;2023-01-19T14:49:52;13.27;;;6.10;;